sensor_id;sensor_type;location;lat;lon;timestamp;pressure;altitude;pressure_sealevel;temperature;humidity
57050;BME280;42935;50.966;16.992;2023-03-24T00:02:47;100801.04;;;11.45;100.00
57050;BME280;42935;50.966;16.992;2023-03-24T00:06:08;100814.08;;;11.25;100.00
57050;BME280;42935;50.966;16.992;2023-03-24T00:09:41;100810.59;;;11.22;100.00
57050;BME280;42935;50.966;16.992;2023-03-24T00:13:05;100801.29;;;11.20;100.00
57050;BME280;42935;50.966;16.992;2023-03-24T00:16:26;100805.54;;;11.37;100.00
57050;BME280;42935;50.966;16.992;2023-03-24T00:19:46;100801.63;;;11.29;100.00
57050;BME280;42935;50.966;16.992;2023-03-24T00:23:08;100799.90;;;11.23;100.00
57050;BME280;42935;50.966;16.992;2023-03-24T00:26:30;100789.61;;;11.23;100.00
57050;BME280;42935;50.966;16.992;2023-03-24T00:29:51;100796.20;;;11.26;100.00
57050;BME280;42935;50.966;16.992;2023-03-24T00:33:11;100776.46;;;11.16;100.00
57050;BME280;42935;50.966;16.992;2023-03-24T00:36:29;100785.43;;;11.17;100.00
57050;BME280;42935;50.966;16.992;2023-03-24T00:39:49;100768.32;;;11.27;100.00
57050;BME280;42935;50.966;16.992;2023-03-24T00:43:09;100773.59;;;11.45;100.00
57050;BME280;42935;50.966;16.992;2023-03-24T00:46:31;100761.13;;;11.40;100.00
57050;BME280;42935;50.966;16.992;2023-03-24T00:49:48;100752.34;;;11.39;100.00
57050;BME280;42935;50.966;16.992;2023-03-24T00:53:14;100757.41;;;11.38;100.00
57050;BME280;42935;50.966;16.992;2023-03-24T00:56:34;100752.21;;;11.45;100.00
57050;BME280;42935;50.966;16.992;2023-03-24T00:59:58;100732.41;;;11.47;100.00
57050;BME280;42935;50.966;16.992;2023-03-24T01:03:29;100737.33;;;11.60;100.00
57050;BME280;42935;50.966;16.992;2023-03-24T01:06:49;100735.96;;;11.41;100.00
57050;BME280;42935;50.966;16.992;2023-03-24T01:10:12;100733.75;;;11.23;100.00
57050;BME280;42935;50.966;16.992;2023-03-24T01:13:29;100736.35;;;11.28;100.00
57050;BME280;42935;50.966;16.992;2023-03-24T01:16:49;100686.62;;;10.77;100.00
57050;BME280;42935;50.966;16.992;2023-03-24T01:20:16;100727.22;;;10.90;100.00
57050;BME280;42935;50.966;16.992;2023-03-24T01:23:34;100724.74;;;10.83;100.00
57050;BME280;42935;50.966;16.992;2023-03-24T01:26:54;100723.16;;;10.79;100.00
57050;BME280;42935;50.966;16.992;2023-03-24T01:30:23;100721.02;;;10.98;100.00
57050;BME280;42935;50.966;16.992;2023-03-24T01:33:43;100710.54;;;11.13;100.00
57050;BME280;42935;50.966;16.992;2023-03-24T01:37:01;100715.81;;;11.36;100.00
57050;BME280;42935;50.966;16.992;2023-03-24T01:40:27;100714.53;;;11.33;100.00
57050;BME280;42935;50.966;16.992;2023-03-24T01:43:43;100714.59;;;11.11;100.00
57050;BME280;42935;50.966;16.992;2023-03-24T01:47:06;100715.35;;;11.03;100.00
57050;BME280;42935;50.966;16.992;2023-03-24T01:50:27;100679.59;;;10.84;100.00
57050;BME280;42935;50.966;16.992;2023-03-24T01:53:58;100705.95;;;10.96;100.00
57050;BME280;42935;50.966;16.992;2023-03-24T02:00:48;100686.52;;;10.88;100.00
57050;BME280;42935;50.966;16.992;2023-03-24T02:04:07;100691.24;;;10.97;100.00
57050;BME280;42935;50.966;16.992;2023-03-24T02:07:37;100668.40;;;10.96;100.00
57050;BME280;42935;50.966;16.992;2023-03-24T02:10:54;100677.48;;;11.18;100.00
57050;BME280;42935;50.966;16.992;2023-03-24T02:14:12;100669.27;;;11.17;100.00
57050;BME280;42935;50.966;16.992;2023-03-24T02:31:56;100669.03;;;11.10;100.00
57050;BME280;42935;50.966;16.992;2023-03-24T02:42:24;100648.34;;;11.14;100.00
57050;BME280;42935;50.966;16.992;2023-03-24T02:49:42;100642.67;;;11.27;100.00
57050;BME280;42935;50.966;16.992;2023-03-24T03:00:01;100645.98;;;10.95;100.00
57050;BME280;42935;50.966;16.992;2023-03-24T03:03:44;100636.74;;;10.65;100.00
57050;BME280;42935;50.966;16.992;2023-03-24T03:07:07;100641.43;;;10.77;100.00
57050;BME280;42935;50.966;16.992;2023-03-24T03:10:34;100626.16;;;10.74;100.00
57050;BME280;42935;50.966;16.992;2023-03-24T03:14:00;100632.29;;;10.86;100.00
57050;BME280;42935;50.966;16.992;2023-03-24T03:17:26;100633.09;;;10.88;100.00
57050;BME280;42935;50.966;16.992;2023-03-24T03:20:51;100636.68;;;10.80;100.00
57050;BME280;42935;50.966;16.992;2023-03-24T03:24:21;100606.75;;;10.54;100.00
57050;BME280;42935;50.966;16.992;2023-03-24T03:27:45;100644.45;;;10.58;100.00
57050;BME280;42935;50.966;16.992;2023-03-24T03:31:07;100638.35;;;10.57;100.00
57050;BME280;42935;50.966;16.992;2023-03-24T03:34:36;100625.32;;;10.46;100.00
57050;BME280;42935;50.966;16.992;2023-03-24T03:41:23;100620.80;;;10.52;100.00
57050;BME280;42935;50.966;16.992;2023-03-24T03:44:40;100628.06;;;10.61;100.00
57050;BME280;42935;50.966;16.992;2023-03-24T03:47:56;100627.06;;;10.52;100.00
57050;BME280;42935;50.966;16.992;2023-03-24T03:51:14;100619.39;;;10.41;100.00
57050;BME280;42935;50.966;16.992;2023-03-24T03:54:33;100616.63;;;10.44;100.00
57050;BME280;42935;50.966;16.992;2023-03-24T03:57:50;100620.22;;;10.53;100.00
57050;BME280;42935;50.966;16.992;2023-03-24T04:01:16;100601.47;;;10.51;100.00
57050;BME280;42935;50.966;16.992;2023-03-24T04:04:56;100602.05;;;10.57;100.00
57050;BME280;42935;50.966;16.992;2023-03-24T04:18:50;100594.88;;;10.54;100.00
57050;BME280;42935;50.966;16.992;2023-03-24T04:29:24;100603.26;;;10.52;100.00
57050;BME280;42935;50.966;16.992;2023-03-24T04:39:45;100598.75;;;10.61;100.00
57050;BME280;42935;50.966;16.992;2023-03-24T04:43:05;100593.36;;;10.47;100.00
57050;BME280;42935;50.966;16.992;2023-03-24T04:46:27;100585.93;;;10.39;100.00
57050;BME280;42935;50.966;16.992;2023-03-24T04:49:46;100586.68;;;10.58;100.00
57050;BME280;42935;50.966;16.992;2023-03-24T04:53:05;100572.03;;;10.57;100.00
57050;BME280;42935;50.966;16.992;2023-03-24T04:56:30;100577.48;;;10.67;100.00
57050;BME280;42935;50.966;16.992;2023-03-24T04:59:51;100572.70;;;10.70;100.00
57050;BME280;42935;50.966;16.992;2023-03-24T05:03:42;100576.63;;;10.79;100.00
57050;BME280;42935;50.966;16.992;2023-03-24T05:07:00;100568.94;;;10.91;100.00
57050;BME280;42935;50.966;16.992;2023-03-24T05:10:19;100566.04;;;10.86;100.00
57050;BME280;42935;50.966;16.992;2023-03-24T05:13:37;100568.01;;;10.77;100.00
57050;BME280;42935;50.966;16.992;2023-03-24T05:16:55;100580.01;;;10.78;100.00
57050;BME280;42935;50.966;16.992;2023-03-24T05:20:14;100578.63;;;10.83;100.00
57050;BME280;42935;50.966;16.992;2023-03-24T05:23:35;100573.26;;;10.84;100.00
57050;BME280;42935;50.966;16.992;2023-03-24T05:26:51;100584.59;;;10.97;100.00
57050;BME280;42935;50.966;16.992;2023-03-24T05:30:09;100581.66;;;10.97;100.00
57050;BME280;42935;50.966;16.992;2023-03-24T05:33:59;100585.59;;;11.10;100.00
57050;BME280;42935;50.966;16.992;2023-03-24T05:37:16;100573.48;;;11.17;100.00
57050;BME280;42935;50.966;16.992;2023-03-24T05:40:44;100581.39;;;11.30;100.00
57050;BME280;42935;50.966;16.992;2023-03-24T05:44:00;100576.16;;;11.30;100.00
57050;BME280;42935;50.966;16.992;2023-03-24T05:47:21;100576.74;;;11.39;100.00
57050;BME280;42935;50.966;16.992;2023-03-24T05:50:42;100578.77;;;11.35;100.00
57050;BME280;42935;50.966;16.992;2023-03-24T05:54:09;100588.14;;;11.40;100.00
57050;BME280;42935;50.966;16.992;2023-03-24T05:57:30;100577.99;;;11.25;100.00
57050;BME280;42935;50.966;16.992;2023-03-24T06:00:53;100576.67;;;11.30;100.00
57050;BME280;42935;50.966;16.992;2023-03-24T06:04:20;100569.38;;;11.41;100.00
57050;BME280;42935;50.966;16.992;2023-03-24T06:07:40;100550.63;;;11.34;100.00
57050;BME280;42935;50.966;16.992;2023-03-24T06:11:04;100568.78;;;11.54;100.00
57050;BME280;42935;50.966;16.992;2023-03-24T06:14:55;100574.23;;;11.75;100.00
57050;BME280;42935;50.966;16.992;2023-03-24T06:18:15;100566.91;;;11.81;100.00
57050;BME280;42935;50.966;16.992;2023-03-24T06:22:04;100557.26;;;12.02;100.00
57050;BME280;42935;50.966;16.992;2023-03-24T06:25:24;100554.53;;;12.14;100.00
57050;BME280;42935;50.966;16.992;2023-03-24T06:28:43;100568.31;;;12.41;100.00
57050;BME280;42935;50.966;16.992;2023-03-24T06:32:04;100560.59;;;12.49;100.00
57050;BME280;42935;50.966;16.992;2023-03-24T06:35:21;100565.05;;;12.64;100.00
57050;BME280;42935;50.966;16.992;2023-03-24T06:38:38;100562.45;;;12.68;100.00
57050;BME280;42935;50.966;16.992;2023-03-24T06:41:56;100561.83;;;12.75;100.00
57050;BME280;42935;50.966;16.992;2023-03-24T06:45:17;100555.94;;;12.90;100.00
57050;BME280;42935;50.966;16.992;2023-03-24T06:48:38;100547.26;;;12.98;100.00
57050;BME280;42935;50.966;16.992;2023-03-24T06:52:00;100546.71;;;13.08;100.00
57050;BME280;42935;50.966;16.992;2023-03-24T06:55:16;100559.13;;;13.29;100.00
57050;BME280;42935;50.966;16.992;2023-03-24T06:58:33;100542.95;;;13.32;100.00
57050;BME280;42935;50.966;16.992;2023-03-24T07:01:54;100551.97;;;13.44;100.00
57050;BME280;42935;50.966;16.992;2023-03-24T07:05:14;100544.42;;;13.37;100.00
57050;BME280;42935;50.966;16.992;2023-03-24T07:09:05;100560.45;;;13.40;100.00
57050;BME280;42935;50.966;16.992;2023-03-24T07:12:24;100563.53;;;13.30;100.00
57050;BME280;42935;50.966;16.992;2023-03-24T07:15:39;100556.09;;;13.01;100.00
57050;BME280;42935;50.966;16.992;2023-03-24T07:18:57;100560.25;;;12.83;100.00
57050;BME280;42935;50.966;16.992;2023-03-24T07:22:18;100556.34;;;12.77;100.00
57050;BME280;42935;50.966;16.992;2023-03-24T07:25:38;100556.47;;;13.09;100.00
57050;BME280;42935;50.966;16.992;2023-03-24T07:28:58;100559.19;;;13.24;100.00
57050;BME280;42935;50.966;16.992;2023-03-24T07:32:18;100547.95;;;13.36;100.00
57050;BME280;42935;50.966;16.992;2023-03-24T07:35:43;100535.84;;;13.33;100.00
57050;BME280;42935;50.966;16.992;2023-03-24T07:39:03;100530.69;;;13.35;100.00
57050;BME280;42935;50.966;16.992;2023-03-24T07:42:21;100544.46;;;13.44;100.00
57050;BME280;42935;50.966;16.992;2023-03-24T07:45:43;100539.09;;;13.52;100.00
57050;BME280;42935;50.966;16.992;2023-03-24T07:48:59;100534.61;;;13.35;100.00
57050;BME280;42935;50.966;16.992;2023-03-24T07:52:16;100530.96;;;13.55;100.00
57050;BME280;42935;50.966;16.992;2023-03-24T07:55:37;100524.78;;;13.18;100.00
57050;BME280;42935;50.966;16.992;2023-03-24T07:59:01;100517.36;;;12.77;100.00
57050;BME280;42935;50.966;16.992;2023-03-24T08:02:20;100501.41;;;12.88;100.00
57050;BME280;42935;50.966;16.992;2023-03-24T08:05:41;100500.11;;;12.76;100.00
57050;BME280;42935;50.966;16.992;2023-03-24T08:08:58;100492.95;;;12.72;100.00
57050;BME280;42935;50.966;16.992;2023-03-24T08:12:19;100488.24;;;12.86;100.00
57050;BME280;42935;50.966;16.992;2023-03-24T08:15:35;100498.55;;;12.92;100.00
57050;BME280;42935;50.966;16.992;2023-03-24T08:18:52;100511.23;;;13.19;100.00
57050;BME280;42935;50.966;16.992;2023-03-24T08:22:16;100511.34;;;13.34;100.00
57050;BME280;42935;50.966;16.992;2023-03-24T08:25:34;100495.67;;;13.51;100.00
57050;BME280;42935;50.966;16.992;2023-03-24T08:28:53;100496.66;;;13.76;100.00
57050;BME280;42935;50.966;16.992;2023-03-24T08:32:12;100482.31;;;14.05;100.00
57050;BME280;42935;50.966;16.992;2023-03-24T08:35:34;100479.22;;;14.48;100.00
57050;BME280;42935;50.966;16.992;2023-03-24T08:38:57;100462.25;;;14.61;100.00
57050;BME280;42935;50.966;16.992;2023-03-24T08:42:24;100454.74;;;14.74;100.00
57050;BME280;42935;50.966;16.992;2023-03-24T08:45:48;100459.98;;;14.98;100.00
57050;BME280;42935;50.966;16.992;2023-03-24T08:49:05;100445.71;;;15.24;100.00
57050;BME280;42935;50.966;16.992;2023-03-24T08:52:24;100438.12;;;15.33;100.00
57050;BME280;42935;50.966;16.992;2023-03-24T08:55:42;100443.34;;;15.23;100.00
57050;BME280;42935;50.966;16.992;2023-03-24T08:59:01;100444.17;;;14.96;100.00
57050;BME280;42935;50.966;16.992;2023-03-24T09:02:20;100444.79;;;14.80;100.00
57050;BME280;42935;50.966;16.992;2023-03-24T09:05:40;100453.12;;;15.00;100.00
57050;BME280;42935;50.966;16.992;2023-03-24T09:09:01;100447.05;;;15.18;100.00
57050;BME280;42935;50.966;16.992;2023-03-24T09:12:16;100438.77;;;15.26;100.00
57050;BME280;42935;50.966;16.992;2023-03-24T09:15:38;100442.79;;;15.46;100.00
57050;BME280;42935;50.966;16.992;2023-03-24T09:18:57;100424.98;;;15.55;99.92
57050;BME280;42935;50.966;16.992;2023-03-24T09:22:15;100420.49;;;15.63;95.67
57050;BME280;42935;50.966;16.992;2023-03-24T09:25:36;100412.84;;;15.71;98.39
57050;BME280;42935;50.966;16.992;2023-03-24T09:29:23;100369.76;;;15.59;94.20
57050;BME280;42935;50.966;16.992;2023-03-24T09:32:39;100416.91;;;15.95;94.16
57050;BME280;42935;50.966;16.992;2023-03-24T09:35:59;100402.95;;;16.11;96.80
57050;BME280;42935;50.966;16.992;2023-03-24T09:39:19;100407.52;;;16.37;99.63
57050;BME280;42935;50.966;16.992;2023-03-24T09:42:39;100403.20;;;16.44;93.53
57050;BME280;42935;50.966;16.992;2023-03-24T09:46:01;100393.37;;;16.50;93.25
57050;BME280;42935;50.966;16.992;2023-03-24T09:49:23;100398.78;;;16.61;88.08
57050;BME280;42935;50.966;16.992;2023-03-24T09:52:43;100394.29;;;16.71;84.18
57050;BME280;42935;50.966;16.992;2023-03-24T09:59:38;100387.71;;;17.18;81.98
57050;BME280;42935;50.966;16.992;2023-03-24T10:03:23;100379.11;;;17.38;79.68
57050;BME280;42935;50.966;16.992;2023-03-24T10:06:27;100378.23;;;17.54;76.25
57050;BME280;42935;50.966;16.992;2023-03-24T10:09:57;100369.92;;;17.76;74.74
57050;BME280;42935;50.966;16.992;2023-03-24T10:13:24;100363.29;;;17.78;72.98
57050;BME280;42935;50.966;16.992;2023-03-24T10:16:56;100354.38;;;17.92;73.70
57050;BME280;42935;50.966;16.992;2023-03-24T10:30:49;100342.99;;;18.40;66.13
57050;BME280;42935;50.966;16.992;2023-03-24T10:34:09;100344.81;;;18.72;69.22
57050;BME280;42935;50.966;16.992;2023-03-24T10:37:28;100334.63;;;18.77;66.37
57050;BME280;42935;50.966;16.992;2023-03-24T10:40:49;100322.45;;;18.80;70.43
57050;BME280;42935;50.966;16.992;2023-03-24T10:44:11;100322.80;;;18.56;66.53
57050;BME280;42935;50.966;16.992;2023-03-24T10:47:33;100316.08;;;18.45;66.19
57050;BME280;42935;50.966;16.992;2023-03-24T10:50:57;100323.50;;;18.49;67.42
57050;BME280;42935;50.966;16.992;2023-03-24T10:57:47;100326.65;;;18.18;66.77
57050;BME280;42935;50.966;16.992;2023-03-24T11:01:31;100310.88;;;18.15;66.41
57050;BME280;42935;50.966;16.992;2023-03-24T11:04:38;100317.01;;;18.51;66.04
57050;BME280;42935;50.966;16.992;2023-03-24T11:11:30;100298.02;;;18.82;66.78
57050;BME280;42935;50.966;16.992;2023-03-24T11:14:48;100303.38;;;18.97;66.07
57050;BME280;42935;50.966;16.992;2023-03-24T11:18:14;100306.32;;;19.07;64.47
57050;BME280;42935;50.966;16.992;2023-03-24T11:21:35;100304.64;;;19.20;65.40
57050;BME280;42935;50.966;16.992;2023-03-24T11:24:54;100312.54;;;18.79;64.77
57050;BME280;42935;50.966;16.992;2023-03-24T11:28:17;100307.09;;;18.52;65.83
57050;BME280;42935;50.966;16.992;2023-03-24T11:31:40;100296.94;;;18.42;66.14
57050;BME280;42935;50.966;16.992;2023-03-24T11:35:14;100292.97;;;18.23;65.71
57050;BME280;42935;50.966;16.992;2023-03-24T11:38:36;100305.21;;;18.27;66.65
57050;BME280;42935;50.966;16.992;2023-03-24T11:45:36;100298.17;;;18.56;64.29
57050;BME280;42935;50.966;16.992;2023-03-24T11:49:00;100287.73;;;18.37;66.06
57050;BME280;42935;50.966;16.992;2023-03-24T11:52:25;100288.33;;;18.34;66.73
57050;BME280;42935;50.966;16.992;2023-03-24T12:09:52;100280.79;;;18.36;65.63
57050;BME280;42935;50.966;16.992;2023-03-24T12:13:19;100282.86;;;18.24;66.33
57050;BME280;42935;50.966;16.992;2023-03-24T12:16:48;100278.90;;;18.06;66.39
57050;BME280;42935;50.966;16.992;2023-03-24T12:20:18;100267.03;;;17.83;65.61
57050;BME280;42935;50.966;16.992;2023-03-24T12:37:48;100265.13;;;17.84;67.55
57050;BME280;42935;50.966;16.992;2023-03-24T12:48:12;100262.41;;;17.61;66.85
57050;BME280;42935;50.966;16.992;2023-03-24T12:58:41;100250.01;;;17.52;71.17
57050;BME280;42935;50.966;16.992;2023-03-24T13:05:33;100251.05;;;17.17;71.15
57050;BME280;42935;50.966;16.992;2023-03-24T13:09:03;100245.53;;;17.06;70.59
57050;BME280;42935;50.966;16.992;2023-03-24T13:12:32;100232.70;;;16.93;71.00
57050;BME280;42935;50.966;16.992;2023-03-24T13:15:55;100244.88;;;16.87;71.37
57050;BME280;42935;50.966;16.992;2023-03-24T13:19:20;100237.49;;;16.83;70.24
57050;BME280;42935;50.966;16.992;2023-03-24T13:22:39;100239.73;;;16.81;70.67
57050;BME280;42935;50.966;16.992;2023-03-24T13:33:04;100209.03;;;16.71;72.06
57050;BME280;42935;50.966;16.992;2023-03-24T13:40:04;100196.84;;;16.94;70.72
57050;BME280;42935;50.966;16.992;2023-03-24T13:43:28;100207.18;;;17.31;70.78
57050;BME280;42935;50.966;16.992;2023-03-24T13:50:16;100210.81;;;17.22;71.35
57050;BME280;42935;50.966;16.992;2023-03-24T13:53:42;100204.26;;;17.09;71.18
57050;BME280;42935;50.966;16.992;2023-03-24T13:57:13;100216.79;;;17.03;70.86
57050;BME280;42935;50.966;16.992;2023-03-24T14:07:46;100196.96;;;16.86;71.49
57050;BME280;42935;50.966;16.992;2023-03-24T14:11:08;100203.29;;;17.13;72.19
57050;BME280;42935;50.966;16.992;2023-03-24T14:14:27;100198.82;;;17.15;71.83
57050;BME280;42935;50.966;16.992;2023-03-24T14:21:28;100206.52;;;17.17;71.57
57050;BME280;42935;50.966;16.992;2023-03-24T14:25:03;100201.60;;;17.18;70.84
57050;BME280;42935;50.966;16.992;2023-03-24T14:28:24;100194.00;;;17.08;70.43
57050;BME280;42935;50.966;16.992;2023-03-24T14:31:59;100215.75;;;17.14;69.81
57050;BME280;42935;50.966;16.992;2023-03-24T14:35:26;100215.17;;;17.08;70.07
57050;BME280;42935;50.966;16.992;2023-03-24T14:38:46;100221.28;;;17.02;69.94
57050;BME280;42935;50.966;16.992;2023-03-24T14:45:40;100214.61;;;16.97;69.47
57050;BME280;42935;50.966;16.992;2023-03-24T14:52:36;100216.13;;;16.95;68.89
57050;BME280;42935;50.966;16.992;2023-03-24T14:55:57;100216.06;;;16.91;69.10
57050;BME280;42935;50.966;16.992;2023-03-24T15:03:08;100204.98;;;16.67;70.31
57050;BME280;42935;50.966;16.992;2023-03-24T15:06:21;100199.70;;;16.61;70.02
57050;BME280;42935;50.966;16.992;2023-03-24T15:09:47;100209.21;;;16.59;70.33
57050;BME280;42935;50.966;16.992;2023-03-24T15:23:43;100116.28;;;16.50;68.67
57050;BME280;42935;50.966;16.992;2023-03-24T15:30:37;100173.12;;;16.77;68.58
57050;BME280;42935;50.966;16.992;2023-03-24T15:37:37;100180.41;;;16.67;69.07
57050;BME280;42935;50.966;16.992;2023-03-24T15:41:04;100173.14;;;16.66;67.89
57050;BME280;42935;50.966;16.992;2023-03-24T15:44:27;100162.58;;;16.36;67.94
57050;BME280;42935;50.966;16.992;2023-03-24T15:47:50;100181.34;;;16.50;67.53
57050;BME280;42935;50.966;16.992;2023-03-24T15:51:12;100175.58;;;16.29;68.72
57050;BME280;42935;50.966;16.992;2023-03-24T15:54:38;100180.49;;;16.30;68.31
57050;BME280;42935;50.966;16.992;2023-03-24T15:58:00;100189.92;;;16.19;68.97
57050;BME280;42935;50.966;16.992;2023-03-24T16:01:26;100196.26;;;16.24;68.35
57050;BME280;42935;50.966;16.992;2023-03-24T16:05:00;100173.06;;;16.09;69.47
57050;BME280;42935;50.966;16.992;2023-03-24T16:08:26;100181.39;;;15.99;70.35
57050;BME280;42935;50.966;16.992;2023-03-24T16:11:48;100187.00;;;15.95;71.07
57050;BME280;42935;50.966;16.992;2023-03-24T16:15:12;100204.57;;;15.91;71.76
57050;BME280;42935;50.966;16.992;2023-03-24T16:18:35;100204.93;;;15.86;72.14
57050;BME280;42935;50.966;16.992;2023-03-24T16:21:57;100192.30;;;15.86;71.19
57050;BME280;42935;50.966;16.992;2023-03-24T16:25:19;100203.20;;;15.93;71.06
57050;BME280;42935;50.966;16.992;2023-03-24T16:28:40;100192.52;;;15.86;70.29
57050;BME280;42935;50.966;16.992;2023-03-24T16:31:57;100185.30;;;15.74;70.25
57050;BME280;42935;50.966;16.992;2023-03-24T16:35:14;100192.93;;;15.66;70.80
57050;BME280;42935;50.966;16.992;2023-03-24T16:38:37;100195.18;;;15.66;71.14
57050;BME280;42935;50.966;16.992;2023-03-24T16:42:04;100211.51;;;15.45;73.39
57050;BME280;42935;50.966;16.992;2023-03-24T16:45:23;100207.22;;;15.35;74.25
57050;BME280;42935;50.966;16.992;2023-03-24T16:48:39;100195.80;;;15.04;76.10
57050;BME280;42935;50.966;16.992;2023-03-24T16:51:59;100199.63;;;14.91;77.23
57050;BME280;42935;50.966;16.992;2023-03-24T16:55:19;100183.20;;;14.65;78.30
57050;BME280;42935;50.966;16.992;2023-03-24T16:58:35;100211.88;;;14.87;77.12
57050;BME280;42935;50.966;16.992;2023-03-24T17:01:51;100199.13;;;14.78;77.05
57050;BME280;42935;50.966;16.992;2023-03-24T17:05:23;100207.14;;;14.67;78.58
57050;BME280;42935;50.966;16.992;2023-03-24T17:08:43;100206.63;;;14.53;80.50
57050;BME280;42935;50.966;16.992;2023-03-24T17:12:07;100218.65;;;14.51;80.93
57050;BME280;42935;50.966;16.992;2023-03-24T17:15:29;100218.83;;;14.42;81.87
57050;BME280;42935;50.966;16.992;2023-03-24T17:18:51;100230.54;;;14.39;83.58
57050;BME280;42935;50.966;16.992;2023-03-24T17:22:13;100219.30;;;14.33;83.46
57050;BME280;42935;50.966;16.992;2023-03-24T17:25:37;100232.77;;;14.42;83.64
57050;BME280;42935;50.966;16.992;2023-03-24T17:28:58;100224.88;;;14.26;84.50
57050;BME280;42935;50.966;16.992;2023-03-24T17:32:17;100234.31;;;14.32;85.38
57050;BME280;42935;50.966;16.992;2023-03-24T17:35:37;100230.22;;;14.24;85.95
57050;BME280;42935;50.966;16.992;2023-03-24T17:38:56;100238.95;;;14.23;87.09
57050;BME280;42935;50.966;16.992;2023-03-24T17:42:14;100247.81;;;14.12;88.13
57050;BME280;42935;50.966;16.992;2023-03-24T17:45:30;100283.34;;;14.21;86.47
57050;BME280;42935;50.966;16.992;2023-03-24T17:48:49;100384.35;;;13.39;96.64
57050;BME280;42935;50.966;16.992;2023-03-24T17:52:07;100348.39;;;12.55;100.00
57050;BME280;42935;50.966;16.992;2023-03-24T17:55:28;100375.50;;;12.31;100.00
57050;BME280;42935;50.966;16.992;2023-03-24T17:58:47;100367.28;;;12.09;100.00
57050;BME280;42935;50.966;16.992;2023-03-24T18:02:16;100366.92;;;12.03;100.00
57050;BME280;42935;50.966;16.992;2023-03-24T18:05:34;100364.06;;;11.94;100.00
57050;BME280;42935;50.966;16.992;2023-03-24T18:08:52;100386.30;;;11.83;100.00
57050;BME280;42935;50.966;16.992;2023-03-24T18:12:18;100387.05;;;11.74;100.00
57050;BME280;42935;50.966;16.992;2023-03-24T18:15:41;100389.28;;;11.61;100.00
57050;BME280;42935;50.966;16.992;2023-03-24T18:18:58;100403.88;;;11.58;100.00
57050;BME280;42935;50.966;16.992;2023-03-24T18:22:20;100399.83;;;11.22;100.00
57050;BME280;42935;50.966;16.992;2023-03-24T18:25:41;100429.40;;;11.06;100.00
57050;BME280;42935;50.966;16.992;2023-03-24T18:29:05;100417.48;;;10.88;100.00
57050;BME280;42935;50.966;16.992;2023-03-24T18:32:24;100420.74;;;10.88;100.00
57050;BME280;42935;50.966;16.992;2023-03-24T18:35:49;100408.70;;;10.73;100.00
57050;BME280;42935;50.966;16.992;2023-03-24T18:39:14;100418.50;;;10.60;100.00
57050;BME280;42935;50.966;16.992;2023-03-24T18:42:36;100418.26;;;10.45;100.00
57050;BME280;42935;50.966;16.992;2023-03-24T18:45:56;100421.00;;;10.46;100.00
57050;BME280;42935;50.966;16.992;2023-03-24T18:49:17;100424.37;;;10.32;100.00
57050;BME280;42935;50.966;16.992;2023-03-24T18:52:35;100405.59;;;10.32;100.00
57050;BME280;42935;50.966;16.992;2023-03-24T18:55:55;100404.59;;;10.23;100.00
57050;BME280;42935;50.966;16.992;2023-03-24T18:59:13;100403.84;;;10.22;100.00
57050;BME280;42935;50.966;16.992;2023-03-24T19:02:32;100400.21;;;10.35;100.00
57050;BME280;42935;50.966;16.992;2023-03-24T19:05:52;100413.13;;;10.26;100.00
57050;BME280;42935;50.966;16.992;2023-03-24T19:09:13;100415.45;;;10.09;100.00
57050;BME280;42935;50.966;16.992;2023-03-24T19:12:36;100396.75;;;10.04;100.00
57050;BME280;42935;50.966;16.992;2023-03-24T19:15:56;100379.41;;;10.15;100.00
57050;BME280;42935;50.966;16.992;2023-03-24T19:19:18;100374.94;;;10.47;100.00
57050;BME280;42935;50.966;16.992;2023-03-24T19:22:36;100379.37;;;10.07;100.00
57050;BME280;42935;50.966;16.992;2023-03-24T19:25:57;100366.43;;;10.24;100.00
57050;BME280;42935;50.966;16.992;2023-03-24T19:29:17;100358.94;;;10.43;100.00
57050;BME280;42935;50.966;16.992;2023-03-24T19:32:42;100357.73;;;10.38;100.00
57050;BME280;42935;50.966;16.992;2023-03-24T19:35:59;100355.02;;;10.43;100.00
57050;BME280;42935;50.966;16.992;2023-03-24T19:39:21;100360.63;;;10.45;100.00
57050;BME280;42935;50.966;16.992;2023-03-24T19:42:41;100354.88;;;10.50;100.00
57050;BME280;42935;50.966;16.992;2023-03-24T19:46:00;100374.41;;;10.37;100.00
57050;BME280;42935;50.966;16.992;2023-03-24T19:49:21;100373.13;;;10.22;100.00
57050;BME280;42935;50.966;16.992;2023-03-24T19:52:41;100373.82;;;10.22;100.00
57050;BME280;42935;50.966;16.992;2023-03-24T19:56:02;100373.45;;;9.92;100.00
57050;BME280;42935;50.966;16.992;2023-03-24T19:59:20;100385.77;;;9.87;100.00
57050;BME280;42935;50.966;16.992;2023-03-24T20:02:41;100396.55;;;9.83;100.00
57050;BME280;42935;50.966;16.992;2023-03-24T20:06:05;100407.77;;;9.59;100.00
57050;BME280;42935;50.966;16.992;2023-03-24T20:09:24;100409.28;;;9.60;100.00
57050;BME280;42935;50.966;16.992;2023-03-24T20:12:46;100386.56;;;9.72;100.00
57050;BME280;42935;50.966;16.992;2023-03-24T20:16:06;100392.57;;;9.85;100.00
57050;BME280;42935;50.966;16.992;2023-03-24T20:19:24;100402.18;;;9.83;100.00
57050;BME280;42935;50.966;16.992;2023-03-24T20:22:44;100402.55;;;9.76;100.00